sensor_id;sensor_type;location;lat;lon;timestamp;P1;durP1;ratioP1;P2;durP2;ratioP2
24961;SDS011;12992;50.884;13.668;2023-03-14T00:00:44;4.68;;;2.92;;
24961;SDS011;12992;50.884;13.668;2023-03-14T00:03:10;4.32;;;2.80;;
24961;SDS011;12992;50.884;13.668;2023-03-14T00:05:35;3.25;;;2.50;;
24961;SDS011;12992;50.884;13.668;2023-03-14T00:08:00;3.03;;;2.50;;
24961;SDS011;12992;50.884;13.668;2023-03-14T00:10:26;3.08;;;2.60;;
24961;SDS011;12992;50.884;13.668;2023-03-14T00:12:51;4.65;;;3.13;;
24961;SDS011;12992;50.884;13.668;2023-03-14T00:15:16;3.35;;;2.72;;
24961;SDS011;12992;50.884;13.668;2023-03-14T00:17:42;3.75;;;2.75;;
24961;SDS011;12992;50.884;13.668;2023-03-14T00:20:08;4.03;;;3.45;;
24961;SDS011;12992;50.884;13.668;2023-03-14T00:22:36;6.43;;;3.38;;
24961;SDS011;12992;50.884;13.668;2023-03-14T00:25:02;3.58;;;3.20;;
24961;SDS011;12992;50.884;13.668;2023-03-14T00:27:29;4.32;;;2.83;;
24961;SDS011;12992;50.884;13.668;2023-03-14T00:29:54;6.05;;;3.15;;
24961;SDS011;12992;50.884;13.668;2023-03-14T00:32:20;3.80;;;3.03;;
24961;SDS011;12992;50.884;13.668;2023-03-14T00:34:45;4.43;;;2.80;;
24961;SDS011;12992;50.884;13.668;2023-03-14T00:37:11;3.03;;;2.38;;
24961;SDS011;12992;50.884;13.668;2023-03-14T00:39:37;2.53;;;2.30;;
24961;SDS011;12992;50.884;13.668;2023-03-14T00:42:02;2.50;;;2.28;;
24961;SDS011;12992;50.884;13.668;2023-03-14T00:44:28;2.70;;;2.17;;
24961;SDS011;12992;50.884;13.668;2023-03-14T00:46:53;2.20;;;2.00;;
24961;SDS011;12992;50.884;13.668;2023-03-14T00:49:19;2.70;;;2.10;;
24961;SDS011;12992;50.884;13.668;2023-03-14T00:51:44;2.10;;;1.88;;
24961;SDS011;12992;50.884;13.668;2023-03-14T00:54:10;3.38;;;2.40;;
24961;SDS011;12992;50.884;13.668;2023-03-14T00:56:35;3.58;;;2.40;;
24961;SDS011;12992;50.884;13.668;2023-03-14T00:59:01;3.38;;;2.50;;
24961;SDS011;12992;50.884;13.668;2023-03-14T01:01:26;3.55;;;3.10;;
24961;SDS011;12992;50.884;13.668;2023-03-14T01:03:52;3.95;;;3.30;;
24961;SDS011;12992;50.884;13.668;2023-03-14T01:06:20;4.13;;;3.53;;
24961;SDS011;12992;50.884;13.668;2023-03-14T01:08:48;4.85;;;3.78;;
24961;SDS011;12992;50.884;13.668;2023-03-14T01:11:19;5.07;;;4.43;;
24961;SDS011;12992;50.884;13.668;2023-03-14T01:13:56;5.50;;;4.47;;
24961;SDS011;12992;50.884;13.668;2023-03-14T01:16:23;7.90;;;4.45;;
24961;SDS011;12992;50.884;13.668;2023-03-14T01:18:50;6.28;;;5.13;;
24961;SDS011;12992;50.884;13.668;2023-03-14T01:21:20;5.50;;;4.63;;
24961;SDS011;12992;50.884;13.668;2023-03-14T01:23:50;7.13;;;5.05;;
24961;SDS011;12992;50.884;13.668;2023-03-14T01:26:19;5.30;;;4.80;;
24961;SDS011;12992;50.884;13.668;2023-03-14T01:28:47;7.03;;;4.97;;
24961;SDS011;12992;50.884;13.668;2023-03-14T01:31:13;5.43;;;4.75;;
24961;SDS011;12992;50.884;13.668;2023-03-14T01:33:39;5.00;;;4.20;;
24961;SDS011;12992;50.884;13.668;2023-03-14T01:36:06;6.00;;;4.60;;
24961;SDS011;12992;50.884;13.668;2023-03-14T01:38:33;4.55;;;3.85;;
24961;SDS011;12992;50.884;13.668;2023-03-14T01:41:00;4.72;;;4.10;;
24961;SDS011;12992;50.884;13.668;2023-03-14T01:43:26;3.72;;;3.30;;
24961;SDS011;12992;50.884;13.668;2023-03-14T01:48:40;3.50;;;2.65;;
24961;SDS011;12992;50.884;13.668;2023-03-14T01:51:11;3.05;;;2.75;;
24961;SDS011;12992;50.884;13.668;2023-03-14T01:53:41;2.75;;;2.33;;
24961;SDS011;12992;50.884;13.668;2023-03-14T01:56:09;2.75;;;2.20;;
24961;SDS011;12992;50.884;13.668;2023-03-14T01:58:40;2.70;;;1.92;;
24961;SDS011;12992;50.884;13.668;2023-03-14T02:01:09;1.90;;;1.70;;
24961;SDS011;12992;50.884;13.668;2023-03-14T02:03:36;1.58;;;1.00;;
24961;SDS011;12992;50.884;13.668;2023-03-14T02:06:09;0.70;;;0.60;;
24961;SDS011;12992;50.884;13.668;2023-03-14T02:08:38;0.82;;;0.75;;
24961;SDS011;12992;50.884;13.668;2023-03-14T02:11:09;0.70;;;0.70;;
24961;SDS011;12992;50.884;13.668;2023-03-14T02:13:54;0.85;;;0.82;;
24961;SDS011;12992;50.884;13.668;2023-03-14T02:16:34;0.80;;;0.80;;
24961;SDS011;12992;50.884;13.668;2023-03-14T02:19:14;0.68;;;0.68;;
24961;SDS011;12992;50.884;13.668;2023-03-14T02:22:08;0.60;;;0.60;;
24961;SDS011;12992;50.884;13.668;2023-03-14T02:27:49;0.70;;;0.65;;
24961;SDS011;12992;50.884;13.668;2023-03-14T02:30:16;4.07;;;0.63;;
24961;SDS011;12992;50.884;13.668;2023-03-14T02:32:45;0.40;;;0.40;;
24961;SDS011;12992;50.884;13.668;2023-03-14T02:35:14;0.30;;;0.28;;
24961;SDS011;12992;50.884;13.668;2023-03-14T02:37:46;0.55;;;0.50;;
24961;SDS011;12992;50.884;13.668;2023-03-14T02:40:17;0.35;;;0.35;;
24961;SDS011;12992;50.884;13.668;2023-03-14T02:42:44;1.35;;;0.40;;
24961;SDS011;12992;50.884;13.668;2023-03-14T02:47:39;0.30;;;0.30;;
24961;SDS011;12992;50.884;13.668;2023-03-14T02:50:10;0.80;;;0.30;;
24961;SDS011;12992;50.884;13.668;2023-03-14T02:52:38;0.77;;;0.47;;
24961;SDS011;12992;50.884;13.668;2023-03-14T02:55:04;0.30;;;0.30;;
24961;SDS011;12992;50.884;13.668;2023-03-14T02:57:31;0.40;;;0.38;;
24961;SDS011;12992;50.884;13.668;2023-03-14T03:00:00;0.30;;;0.30;;
24961;SDS011;12992;50.884;13.668;2023-03-14T03:02:32;0.55;;;0.30;;
24961;SDS011;12992;50.884;13.668;2023-03-14T03:04:57;0.73;;;0.50;;
24961;SDS011;12992;50.884;13.668;2023-03-14T03:07:23;0.35;;;0.30;;
24961;SDS011;12992;50.884;13.668;2023-03-14T03:09:49;0.82;;;0.20;;
24961;SDS011;12992;50.884;13.668;2023-03-14T03:12:15;0.30;;;0.30;;
24961;SDS011;12992;50.884;13.668;2023-03-14T03:14:40;0.30;;;0.30;;
24961;SDS011;12992;50.884;13.668;2023-03-14T03:17:06;0.30;;;0.30;;
24961;SDS011;12992;50.884;13.668;2023-03-14T03:19:33;0.38;;;0.30;;
24961;SDS011;12992;50.884;13.668;2023-03-14T03:21:59;0.30;;;0.30;;
24961;SDS011;12992;50.884;13.668;2023-03-14T03:24:24;1.60;;;0.30;;
24961;SDS011;12992;50.884;13.668;2023-03-14T03:26:50;0.52;;;0.30;;
24961;SDS011;12992;50.884;13.668;2023-03-14T03:29:16;0.40;;;0.40;;
24961;SDS011;12992;50.884;13.668;2023-03-14T03:31:41;0.40;;;0.35;;
24961;SDS011;12992;50.884;13.668;2023-03-14T03:34:07;1.10;;;0.50;;
24961;SDS011;12992;50.884;13.668;2023-03-14T03:36:32;0.28;;;0.20;;
24961;SDS011;12992;50.884;13.668;2023-03-14T03:38:59;0.60;;;0.30;;
24961;SDS011;12992;50.884;13.668;2023-03-14T03:41:24;0.40;;;0.40;;
24961;SDS011;12992;50.884;13.668;2023-03-14T03:43:50;0.20;;;0.20;;
24961;SDS011;12992;50.884;13.668;2023-03-14T03:46:17;0.50;;;0.43;;
24961;SDS011;12992;50.884;13.668;2023-03-14T03:48:43;0.75;;;0.40;;
24961;SDS011;12992;50.884;13.668;2023-03-14T03:51:11;0.25;;;0.25;;
24961;SDS011;12992;50.884;13.668;2023-03-14T03:53:38;0.38;;;0.38;;
24961;SDS011;12992;50.884;13.668;2023-03-14T03:56:08;2.50;;;0.40;;
24961;SDS011;12992;50.884;13.668;2023-03-14T03:58:34;0.52;;;0.30;;
24961;SDS011;12992;50.884;13.668;2023-03-14T04:01:01;0.43;;;0.43;;
24961;SDS011;12992;50.884;13.668;2023-03-14T04:03:26;0.30;;;0.30;;
24961;SDS011;12992;50.884;13.668;2023-03-14T04:05:57;0.40;;;0.30;;
24961;SDS011;12992;50.884;13.668;2023-03-14T04:08:27;0.30;;;0.30;;
24961;SDS011;12992;50.884;13.668;2023-03-14T04:10:56;0.60;;;0.52;;
24961;SDS011;12992;50.884;13.668;2023-03-14T04:13:36;0.73;;;0.40;;
24961;SDS011;12992;50.884;13.668;2023-03-14T04:16:02;0.50;;;0.50;;
24961;SDS011;12992;50.884;13.668;2023-03-14T04:18:28;0.30;;;0.30;;
24961;SDS011;12992;50.884;13.668;2023-03-14T04:20:55;0.38;;;0.30;;
24961;SDS011;12992;50.884;13.668;2023-03-14T04:23:26;1.85;;;0.47;;
24961;SDS011;12992;50.884;13.668;2023-03-14T04:25:53;0.40;;;0.40;;
24961;SDS011;12992;50.884;13.668;2023-03-14T04:28:20;0.30;;;0.30;;
24961;SDS011;12992;50.884;13.668;2023-03-14T04:30:45;0.57;;;0.30;;
24961;SDS011;12992;50.884;13.668;2023-03-14T04:33:15;0.43;;;0.30;;
24961;SDS011;12992;50.884;13.668;2023-03-14T04:35:46;0.88;;;0.50;;
24961;SDS011;12992;50.884;13.668;2023-03-14T04:38:13;1.17;;;0.57;;
24961;SDS011;12992;50.884;13.668;2023-03-14T04:40:42;0.75;;;0.60;;
24961;SDS011;12992;50.884;13.668;2023-03-14T04:43:09;0.80;;;0.50;;
24961;SDS011;12992;50.884;13.668;2023-03-14T04:45:43;0.60;;;0.50;;
24961;SDS011;12992;50.884;13.668;2023-03-14T04:48:10;2.05;;;0.50;;
24961;SDS011;12992;50.884;13.668;2023-03-14T04:50:36;3.65;;;0.57;;
24961;SDS011;12992;50.884;13.668;2023-03-14T04:53:01;4.88;;;0.73;;
24961;SDS011;12992;50.884;13.668;2023-03-14T04:55:27;2.33;;;0.73;;
24961;SDS011;12992;50.884;13.668;2023-03-14T04:57:54;0.60;;;0.30;;
24961;SDS011;12992;50.884;13.668;2023-03-14T05:00:21;1.83;;;0.70;;
24961;SDS011;12992;50.884;13.668;2023-03-14T05:02:50;2.28;;;0.75;;
24961;SDS011;12992;50.884;13.668;2023-03-14T05:05:44;2.45;;;0.60;;
24961;SDS011;12992;50.884;13.668;2023-03-14T05:08:23;1.88;;;1.02;;
24961;SDS011;12992;50.884;13.668;2023-03-14T05:11:17;1.45;;;0.57;;
24961;SDS011;12992;50.884;13.668;2023-03-14T05:14:09;3.00;;;0.77;;
24961;SDS011;12992;50.884;13.668;2023-03-14T05:16:53;4.60;;;0.77;;
24961;SDS011;12992;50.884;13.668;2023-03-14T05:19:26;2.03;;;0.70;;
24961;SDS011;12992;50.884;13.668;2023-03-14T05:22:04;3.65;;;0.70;;
24961;SDS011;12992;50.884;13.668;2023-03-14T05:24:49;1.80;;;0.70;;
24961;SDS011;12992;50.884;13.668;2023-03-14T05:27:30;5.15;;;1.02;;
24961;SDS011;12992;50.884;13.668;2023-03-14T05:29:58;0.77;;;0.70;;
24961;SDS011;12992;50.884;13.668;2023-03-14T05:32:52;2.70;;;0.98;;
24961;SDS011;12992;50.884;13.668;2023-03-14T05:35:30;3.85;;;0.93;;
24961;SDS011;12992;50.884;13.668;2023-03-14T05:38:06;3.65;;;0.80;;
24961;SDS011;12992;50.884;13.668;2023-03-14T05:40:42;3.70;;;0.70;;
24961;SDS011;12992;50.884;13.668;2023-03-14T05:43:32;2.67;;;0.82;;
24961;SDS011;12992;50.884;13.668;2023-03-14T05:46:09;1.77;;;0.80;;
24961;SDS011;12992;50.884;13.668;2023-03-14T05:48:46;2.15;;;0.80;;
24961;SDS011;12992;50.884;13.668;2023-03-14T05:51:25;5.30;;;0.80;;
24961;SDS011;12992;50.884;13.668;2023-03-14T05:54:10;1.45;;;0.80;;
24961;SDS011;12992;50.884;13.668;2023-03-14T05:56:46;2.67;;;0.85;;
24961;SDS011;12992;50.884;13.668;2023-03-14T05:59:20;6.50;;;1.13;;
24961;SDS011;12992;50.884;13.668;2023-03-14T06:02:06;2.70;;;0.95;;
24961;SDS011;12992;50.884;13.668;2023-03-14T06:04:42;4.88;;;1.02;;
24961;SDS011;12992;50.884;13.668;2023-03-14T06:07:08;7.18;;;1.10;;
24961;SDS011;12992;50.884;13.668;2023-03-14T06:09:33;2.00;;;0.73;;
24961;SDS011;12992;50.884;13.668;2023-03-14T06:12:00;3.90;;;1.10;;
24961;SDS011;12992;50.884;13.668;2023-03-14T06:14:29;3.20;;;0.95;;
24961;SDS011;12992;50.884;13.668;2023-03-14T06:16:55;3.10;;;0.85;;
24961;SDS011;12992;50.884;13.668;2023-03-14T06:19:23;5.82;;;1.15;;
24961;SDS011;12992;50.884;13.668;2023-03-14T06:21:48;2.00;;;0.63;;
24961;SDS011;12992;50.884;13.668;2023-03-14T06:24:14;6.20;;;1.15;;
24961;SDS011;12992;50.884;13.668;2023-03-14T06:26:44;3.55;;;1.00;;
24961;SDS011;12992;50.884;13.668;2023-03-14T06:29:10;6.03;;;1.02;;
24961;SDS011;12992;50.884;13.668;2023-03-14T06:31:37;3.65;;;0.90;;
24961;SDS011;12992;50.884;13.668;2023-03-14T06:34:05;2.70;;;0.82;;
24961;SDS011;12992;50.884;13.668;2023-03-14T06:36:31;2.60;;;0.80;;
24961;SDS011;12992;50.884;13.668;2023-03-14T06:38:57;2.30;;;0.85;;
24961;SDS011;12992;50.884;13.668;2023-03-14T06:41:23;3.88;;;0.90;;
24961;SDS011;12992;50.884;13.668;2023-03-14T06:43:51;2.83;;;0.90;;
24961;SDS011;12992;50.884;13.668;2023-03-14T06:46:17;4.97;;;1.00;;
24961;SDS011;12992;50.884;13.668;2023-03-14T06:48:42;2.60;;;1.00;;
24961;SDS011;12992;50.884;13.668;2023-03-14T06:51:08;3.17;;;0.90;;
24961;SDS011;12992;50.884;13.668;2023-03-14T06:53:33;3.58;;;1.02;;
24961;SDS011;12992;50.884;13.668;2023-03-14T06:56:01;4.07;;;0.93;;
24961;SDS011;12992;50.884;13.668;2023-03-14T06:58:28;4.47;;;1.25;;
24961;SDS011;12992;50.884;13.668;2023-03-14T07:00:54;1.75;;;0.77;;
24961;SDS011;12992;50.884;13.668;2023-03-14T07:03:23;2.05;;;0.90;;
24961;SDS011;12992;50.884;13.668;2023-03-14T07:05:50;4.30;;;0.80;;
24961;SDS011;12992;50.884;13.668;2023-03-14T07:08:15;2.97;;;0.93;;
24961;SDS011;12992;50.884;13.668;2023-03-14T07:10:41;4.00;;;0.90;;
24961;SDS011;12992;50.884;13.668;2023-03-14T07:13:07;2.20;;;0.73;;
24961;SDS011;12992;50.884;13.668;2023-03-14T07:15:37;1.88;;;0.85;;
24961;SDS011;12992;50.884;13.668;2023-03-14T07:18:07;3.45;;;0.90;;
24961;SDS011;12992;50.884;13.668;2023-03-14T07:20:32;1.40;;;0.80;;
24961;SDS011;12992;50.884;13.668;2023-03-14T07:22:58;2.15;;;0.90;;
24961;SDS011;12992;50.884;13.668;2023-03-14T07:25:46;3.03;;;0.90;;
24961;SDS011;12992;50.884;13.668;2023-03-14T07:28:13;1.73;;;0.75;;
24961;SDS011;12992;50.884;13.668;2023-03-14T07:30:40;3.47;;;0.70;;
24961;SDS011;12992;50.884;13.668;2023-03-14T07:33:13;2.97;;;0.60;;
24961;SDS011;12992;50.884;13.668;2023-03-14T07:35:39;2.22;;;0.88;;
24961;SDS011;12992;50.884;13.668;2023-03-14T07:38:04;2.08;;;0.90;;
24961;SDS011;12992;50.884;13.668;2023-03-14T07:40:35;3.80;;;0.93;;
24961;SDS011;12992;50.884;13.668;2023-03-14T07:43:02;2.83;;;0.80;;
24961;SDS011;12992;50.884;13.668;2023-03-14T07:45:39;1.45;;;0.85;;
24961;SDS011;12992;50.884;13.668;2023-03-14T07:48:04;1.75;;;0.70;;
24961;SDS011;12992;50.884;13.668;2023-03-14T07:50:30;3.00;;;1.08;;
24961;SDS011;12992;50.884;13.668;2023-03-14T07:52:55;2.30;;;0.82;;
24961;SDS011;12992;50.884;13.668;2023-03-14T07:55:20;1.73;;;0.70;;
24961;SDS011;12992;50.884;13.668;2023-03-14T07:57:46;2.08;;;0.70;;
24961;SDS011;12992;50.884;13.668;2023-03-14T08:00:11;2.45;;;0.70;;
24961;SDS011;12992;50.884;13.668;2023-03-14T08:02:39;0.85;;;0.60;;
24961;SDS011;12992;50.884;13.668;2023-03-14T08:05:05;2.60;;;0.70;;
24961;SDS011;12992;50.884;13.668;2023-03-14T08:07:30;2.58;;;0.60;;
24961;SDS011;12992;50.884;13.668;2023-03-14T08:09:56;2.75;;;0.80;;
24961;SDS011;12992;50.884;13.668;2023-03-14T08:12:21;1.58;;;0.52;;
24961;SDS011;12992;50.884;13.668;2023-03-14T08:14:46;1.42;;;0.68;;
24961;SDS011;12992;50.884;13.668;2023-03-14T08:17:11;2.38;;;0.80;;
24961;SDS011;12992;50.884;13.668;2023-03-14T08:19:37;2.55;;;0.73;;
24961;SDS011;12992;50.884;13.668;2023-03-14T08:22:02;2.95;;;0.80;;
24961;SDS011;12992;50.884;13.668;2023-03-14T08:24:28;2.45;;;0.65;;
24961;SDS011;12992;50.884;13.668;2023-03-14T08:26:53;1.77;;;0.80;;
24961;SDS011;12992;50.884;13.668;2023-03-14T08:29:18;3.03;;;0.50;;
24961;SDS011;12992;50.884;13.668;2023-03-14T08:31:44;2.40;;;0.60;;
24961;SDS011;12992;50.884;13.668;2023-03-14T08:34:09;1.20;;;0.50;;
24961;SDS011;12992;50.884;13.668;2023-03-14T08:36:34;2.40;;;0.77;;
24961;SDS011;12992;50.884;13.668;2023-03-14T08:39:00;2.67;;;0.95;;
24961;SDS011;12992;50.884;13.668;2023-03-14T08:41:25;1.50;;;0.70;;
24961;SDS011;12992;50.884;13.668;2023-03-14T08:43:50;2.20;;;0.70;;
24961;SDS011;12992;50.884;13.668;2023-03-14T08:46:16;1.67;;;0.60;;
24961;SDS011;12992;50.884;13.668;2023-03-14T08:48:41;0.80;;;0.47;;
24961;SDS011;12992;50.884;13.668;2023-03-14T08:51:10;2.33;;;1.30;;
24961;SDS011;12992;50.884;13.668;2023-03-14T08:53:38;1.90;;;0.88;;
24961;SDS011;12992;50.884;13.668;2023-03-14T08:56:04;1.48;;;0.70;;
24961;SDS011;12992;50.884;13.668;2023-03-14T08:58:31;2.53;;;0.80;;
24961;SDS011;12992;50.884;13.668;2023-03-14T09:00:57;1.73;;;0.57;;
24961;SDS011;12992;50.884;13.668;2023-03-14T09:03:22;0.60;;;0.60;;
24961;SDS011;12992;50.884;13.668;2023-03-14T09:05:48;0.50;;;0.50;;
24961;SDS011;12992;50.884;13.668;2023-03-14T09:08:14;1.30;;;0.50;;
24961;SDS011;12992;50.884;13.668;2023-03-14T09:10:39;1.27;;;0.70;;
24961;SDS011;12992;50.884;13.668;2023-03-14T09:13:05;1.88;;;0.50;;
24961;SDS011;12992;50.884;13.668;2023-03-14T09:15:30;0.93;;;0.52;;
24961;SDS011;12992;50.884;13.668;2023-03-14T09:17:55;2.13;;;0.50;;
24961;SDS011;12992;50.884;13.668;2023-03-14T09:20:21;1.05;;;0.80;;
24961;SDS011;12992;50.884;13.668;2023-03-14T09:22:46;4.78;;;0.70;;
24961;SDS011;12992;50.884;13.668;2023-03-14T09:25:11;1.10;;;0.50;;
24961;SDS011;12992;50.884;13.668;2023-03-14T09:27:37;1.48;;;0.82;;
24961;SDS011;12992;50.884;13.668;2023-03-14T09:30:03;1.67;;;0.60;;
24961;SDS011;12992;50.884;13.668;2023-03-14T09:32:29;1.25;;;0.35;;
24961;SDS011;12992;50.884;13.668;2023-03-14T09:34:56;1.27;;;0.50;;
24961;SDS011;12992;50.884;13.668;2023-03-14T09:37:21;1.05;;;0.47;;
24961;SDS011;12992;50.884;13.668;2023-03-14T09:39:47;1.30;;;0.50;;
24961;SDS011;12992;50.884;13.668;2023-03-14T09:42:13;0.77;;;0.40;;
24961;SDS011;12992;50.884;13.668;2023-03-14T09:44:53;1.88;;;0.95;;
24961;SDS011;12992;50.884;13.668;2023-03-14T09:47:27;2.92;;;0.40;;
24961;SDS011;12992;50.884;13.668;2023-03-14T09:49:53;1.92;;;0.50;;
24961;SDS011;12992;50.884;13.668;2023-03-14T09:52:23;0.43;;;0.40;;
24961;SDS011;12992;50.884;13.668;2023-03-14T09:57:18;0.90;;;0.70;;
24961;SDS011;12992;50.884;13.668;2023-03-14T09:59:46;2.08;;;0.60;;
24961;SDS011;12992;50.884;13.668;2023-03-14T10:02:14;1.55;;;0.88;;
24961;SDS011;12992;50.884;13.668;2023-03-14T10:04:44;1.85;;;0.45;;
24961;SDS011;12992;50.884;13.668;2023-03-14T10:07:13;0.93;;;0.57;;
24961;SDS011;12992;50.884;13.668;2023-03-14T10:09:42;1.55;;;0.50;;
24961;SDS011;12992;50.884;13.668;2023-03-14T10:12:08;1.33;;;0.60;;
24961;SDS011;12992;50.884;13.668;2023-03-14T10:14:35;1.55;;;0.65;;
24961;SDS011;12992;50.884;13.668;2023-03-14T10:17:06;1.52;;;0.60;;
24961;SDS011;12992;50.884;13.668;2023-03-14T10:22:01;2.78;;;0.40;;
24961;SDS011;12992;50.884;13.668;2023-03-14T10:24:28;1.48;;;0.70;;
24961;SDS011;12992;50.884;13.668;2023-03-14T10:27:03;0.95;;;0.55;;
24961;SDS011;12992;50.884;13.668;2023-03-14T10:29:31;1.23;;;0.40;;
24961;SDS011;12992;50.884;13.668;2023-03-14T10:32:03;1.45;;;0.40;;
24961;SDS011;12992;50.884;13.668;2023-03-14T10:34:33;0.75;;;0.50;;
24961;SDS011;12992;50.884;13.668;2023-03-14T10:37:34;0.98;;;0.35;;
24961;SDS011;12992;50.884;13.668;2023-03-14T10:39:53;0.52;;;0.50;;
24961;SDS011;12992;50.884;13.668;2023-03-14T10:42:27;0.70;;;0.50;;
24961;SDS011;12992;50.884;13.668;2023-03-14T10:45:00;1.20;;;0.47;;
24961;SDS011;12992;50.884;13.668;2023-03-14T10:47:30;1.77;;;0.50;;
24961;SDS011;12992;50.884;13.668;2023-03-14T10:49:57;0.30;;;0.30;;
24961;SDS011;12992;50.884;13.668;2023-03-14T10:52:48;2.10;;;0.40;;
24961;SDS011;12992;50.884;13.668;2023-03-14T10:55:14;1.15;;;0.60;;
24961;SDS011;12992;50.884;13.668;2023-03-14T10:57:40;1.23;;;0.55;;
24961;SDS011;12992;50.884;13.668;2023-03-14T11:00:09;1.35;;;0.52;;
24961;SDS011;12992;50.884;13.668;2023-03-14T11:11:18;2.90;;;0.43;;
24961;SDS011;12992;50.884;13.668;2023-03-14T11:16:34;0.60;;;0.40;;
24961;SDS011;12992;50.884;13.668;2023-03-14T11:27:54;1.30;;;0.60;;
24961;SDS011;12992;50.884;13.668;2023-03-14T11:33:05;2.05;;;0.50;;
24961;SDS011;12992;50.884;13.668;2023-03-14T11:35:49;0.98;;;0.52;;
24961;SDS011;12992;50.884;13.668;2023-03-14T11:40:58;0.47;;;0.40;;
24961;SDS011;12992;50.884;13.668;2023-03-14T11:46:10;0.45;;;0.40;;
24961;SDS011;12992;50.884;13.668;2023-03-14T11:48:43;1.10;;;0.50;;
24961;SDS011;12992;50.884;13.668;2023-03-14T11:51:24;0.40;;;0.40;;
24961;SDS011;12992;50.884;13.668;2023-03-14T11:53:55;0.47;;;0.38;;
24961;SDS011;12992;50.884;13.668;2023-03-14T11:56:46;2.20;;;1.00;;
24961;SDS011;12992;50.884;13.668;2023-03-14T11:59:18;0.38;;;0.38;;
24961;SDS011;12992;50.884;13.668;2023-03-14T12:02:05;1.65;;;0.60;;
24961;SDS011;12992;50.884;13.668;2023-03-14T12:08:01;1.58;;;0.52;;
24961;SDS011;12992;50.884;13.668;2023-03-14T12:10:29;0.43;;;0.43;;
24961;SDS011;12992;50.884;13.668;2023-03-14T12:13:01;1.58;;;0.60;;
24961;SDS011;12992;50.884;13.668;2023-03-14T12:15:26;3.35;;;0.60;;
24961;SDS011;12992;50.884;13.668;2023-03-14T12:17:56;2.25;;;0.70;;
24961;SDS011;12992;50.884;13.668;2023-03-14T12:20:22;1.17;;;0.55;;
24961;SDS011;12992;50.884;13.668;2023-03-14T12:25:26;1.33;;;0.50;;
24961;SDS011;12992;50.884;13.668;2023-03-14T12:35:36;1.95;;;0.50;;
24961;SDS011;12992;50.884;13.668;2023-03-14T12:40:58;0.88;;;0.50;;
24961;SDS011;12992;50.884;13.668;2023-03-14T12:43:29;3.05;;;1.13;;
24961;SDS011;12992;50.884;13.668;2023-03-14T12:46:07;1.30;;;0.50;;
24961;SDS011;12992;50.884;13.668;2023-03-14T12:48:32;2.38;;;0.50;;
24961;SDS011;12992;50.884;13.668;2023-03-14T12:51:04;0.73;;;0.43;;
24961;SDS011;12992;50.884;13.668;2023-03-14T12:53:53;0.30;;;0.30;;
24961;SDS011;12992;50.884;13.668;2023-03-14T13:04:36;0.45;;;0.35;;
24961;SDS011;12992;50.884;13.668;2023-03-14T13:07:13;0.80;;;0.45;;
24961;SDS011;12992;50.884;13.668;2023-03-14T13:10:00;0.30;;;0.30;;
24961;SDS011;12992;50.884;13.668;2023-03-14T13:12:38;0.63;;;0.47;;
24961;SDS011;12992;50.884;13.668;2023-03-14T13:15:53;0.40;;;0.40;;
24961;SDS011;12992;50.884;13.668;2023-03-14T13:18:09;0.57;;;0.40;;
24961;SDS011;12992;50.884;13.668;2023-03-14T13:20:45;1.63;;;0.47;;
24961;SDS011;12992;50.884;13.668;2023-03-14T13:23:34;0.30;;;0.30;;
24961;SDS011;12992;50.884;13.668;2023-03-14T13:26:02;0.30;;;0.30;;
24961;SDS011;12992;50.884;13.668;2023-03-14T13:28:27;0.73;;;0.38;;
24961;SDS011;12992;50.884;13.668;2023-03-14T13:31:00;0.55;;;0.30;;
24961;SDS011;12992;50.884;13.668;2023-03-14T13:33:26;1.20;;;0.50;;
24961;SDS011;12992;50.884;13.668;2023-03-14T13:35:59;0.38;;;0.35;;
24961;SDS011;12992;50.884;13.668;2023-03-14T13:38:30;0.95;;;0.38;;
24961;SDS011;12992;50.884;13.668;2023-03-14T13:41:03;0.57;;;0.40;;
24961;SDS011;12992;50.884;13.668;2023-03-14T13:43:38;0.20;;;0.20;;
24961;SDS011;12992;50.884;13.668;2023-03-14T13:46:13;0.50;;;0.30;;
24961;SDS011;12992;50.884;13.668;2023-03-14T13:48:47;1.20;;;0.73;;
24961;SDS011;12992;50.884;13.668;2023-03-14T13:51:18;0.28;;;0.28;;
24961;SDS011;12992;50.884;13.668;2023-03-14T13:53:49;0.65;;;0.20;;
24961;SDS011;12992;50.884;13.668;2023-03-14T13:56:17;0.20;;;0.20;;
24961;SDS011;12992;50.884;13.668;2023-03-14T13:58:43;0.30;;;0.30;;
24961;SDS011;12992;50.884;13.668;2023-03-14T14:01:19;0.80;;;0.40;;
24961;SDS011;12992;50.884;13.668;2023-03-14T14:03:48;0.43;;;0.40;;
24961;SDS011;12992;50.884;13.668;2023-03-14T14:06:29;0.68;;;0.28;;
24961;SDS011;12992;50.884;13.668;2023-03-14T14:09:01;1.38;;;0.20;;
24961;SDS011;12992;50.884;13.668;2023-03-14T14:11:41;0.90;;;0.40;;
24961;SDS011;12992;50.884;13.668;2023-03-14T14:14:11;0.40;;;0.30;;
24961;SDS011;12992;50.884;13.668;2023-03-14T14:16:58;0.30;;;0.30;;
24961;SDS011;12992;50.884;13.668;2023-03-14T14:19:25;2.33;;;0.30;;
24961;SDS011;12992;50.884;13.668;2023-03-14T14:21:53;0.65;;;0.20;;
24961;SDS011;12992;50.884;13.668;2023-03-14T14:24:19;0.77;;;0.30;;
24961;SDS011;12992;50.884;13.668;2023-03-14T14:26:52;1.13;;;0.57;;
24961;SDS011;12992;50.884;13.668;2023-03-14T14:29:28;0.93;;;0.50;;
24961;SDS011;12992;50.884;13.668;2023-03-14T14:31:59;0.90;;;0.47;;
24961;SDS011;12992;50.884;13.668;2023-03-14T14:34:26;1.20;;;0.60;;
24961;SDS011;12992;50.884;13.668;2023-03-14T14:36:52;0.60;;;0.60;;
24961;SDS011;12992;50.884;13.668;2023-03-14T14:39:22;0.38;;;0.38;;
24961;SDS011;12992;50.884;13.668;2023-03-14T14:41:49;0.30;;;0.22;;
24961;SDS011;12992;50.884;13.668;2023-03-14T14:44:17;0.20;;;0.20;;
24961;SDS011;12992;50.884;13.668;2023-03-14T14:46:46;1.08;;;0.43;;
24961;SDS011;12992;50.884;13.668;2023-03-14T14:49:12;0.65;;;0.30;;
24961;SDS011;12992;50.884;13.668;2023-03-14T14:51:41;2.33;;;0.38;;
24961;SDS011;12992;50.884;13.668;2023-03-14T14:56:48;0.30;;;0.30;;
24961;SDS011;12992;50.884;13.668;2023-03-14T14:59:41;0.45;;;0.38;;
24961;SDS011;12992;50.884;13.668;2023-03-14T15:02:09;2.78;;;0.35;;
24961;SDS011;12992;50.884;13.668;2023-03-14T15:04:53;0.60;;;0.40;;
24961;SDS011;12992;50.884;13.668;2023-03-14T15:07:19;1.75;;;0.40;;
24961;SDS011;12992;50.884;13.668;2023-03-14T15:09:44;0.43;;;0.30;;
24961;SDS011;12992;50.884;13.668;2023-03-14T15:12:09;1.95;;;1.50;;
24961;SDS011;12992;50.884;13.668;2023-03-14T15:14:35;1.10;;;1.00;;
24961;SDS011;12992;50.884;13.668;2023-03-14T15:17:00;1.67;;;0.90;;
24961;SDS011;12992;50.884;13.668;2023-03-14T15:19:26;1.00;;;0.63;;
24961;SDS011;12992;50.884;13.668;2023-03-14T15:21:54;0.73;;;0.35;;
24961;SDS011;12992;50.884;13.668;2023-03-14T15:24:20;1.77;;;1.15;;
24961;SDS011;12992;50.884;13.668;2023-03-14T15:26:45;2.80;;;2.00;;
24961;SDS011;12992;50.884;13.668;2023-03-14T15:29:11;0.60;;;0.60;;
24961;SDS011;12992;50.884;13.668;2023-03-14T15:31:37;0.63;;;0.47;;
24961;SDS011;12992;50.884;13.668;2023-03-14T15:34:06;0.43;;;0.40;;
24961;SDS011;12992;50.884;13.668;2023-03-14T15:36:32;0.52;;;0.30;;
24961;SDS011;12992;50.884;13.668;2023-03-14T15:38:59;0.30;;;0.30;;
24961;SDS011;12992;50.884;13.668;2023-03-14T15:41:25;0.45;;;0.35;;
24961;SDS011;12992;50.884;13.668;2023-03-14T15:43:51;1.10;;;0.40;;
24961;SDS011;12992;50.884;13.668;2023-03-14T15:46:17;0.68;;;0.50;;
24961;SDS011;12992;50.884;13.668;2023-03-14T15:48:43;2.50;;;0.50;;
24961;SDS011;12992;50.884;13.668;2023-03-14T15:51:12;0.35;;;0.35;;
24961;SDS011;12992;50.884;13.668;2023-03-14T15:53:38;1.08;;;0.60;;
24961;SDS011;12992;50.884;13.668;2023-03-14T15:56:04;0.63;;;0.40;;